Time;durP1;ratioP1;P1;durP2;ratioP2;P2;SDS_P1;SDS_P2;PMS_P1;PMS_P2;Temp;Humidity;BMP_temperature;BMP_pressure;BME280_temperature;BME280_humidity;BME280_pressure;Samples;Min_cycle;Max_cycle;Signal;HPM_P1;HPM_P2
2020/12/19 00:00:19;;;;;;;72.53;41.80;;;;;;;2.33;80.54;101448.47;126505;1100;23785;-82
2020/12/19 00:03:01;;;;;;;76.42;40.83;;;;;;;2.33;80.51;101443.08;126545;1099;23379;-82
2020/12/19 00:05:30;;;;;;;66.12;37.88;;;;;;;2.33;80.49;101434.15;126506;1099;23382;-81
2020/12/19 00:07:58;;;;;;;74.92;40.45;;;;;;;2.33;80.59;101428.77;126547;1100;23313;-82
2020/12/19 00:10:26;;;;;;;63.35;33.98;;;;;;;2.33;80.39;101426.07;126863;1098;23313;-81
2020/12/19 00:12:59;;;;;;;73.87;37.90;;;;;;;2.32;80.67;101417.11;126454;1101;23369;-81
2020/12/19 00:15:28;;;;;;;77.32;38.08;;;;;;;2.34;80.72;101414.31;126463;1098;27830;-81
2020/12/19 00:17:56;;;;;;;75.78;38.63;;;;;;;2.33;80.57;101413.46;126463;1100;23786;-81
2020/12/19 00:20:24;;;;;;;65.50;37.80;;;;;;;2.36;80.67;101404.29;126472;1100;23342;-81
2020/12/19 00:22:52;;;;;;;77.20;38.90;;;;;;;2.39;80.70;101420.20;126482;1100;23398;-81
2020/12/19 00:25:20;;;;;;;70.85;37.58;;;;;;;2.41;80.99;101418.27;126877;1098;26829;-81
2020/12/19 00:27:49;;;;;;;70.22;36.85;;;;;;;2.43;80.84;101414.52;126493;1100;26855;-80
2020/12/19 00:30:17;;;;;;;64.40;34.67;;;;;;;2.42;80.77;101410.08;126452;1100;23655;-79
2020/12/19 00:32:45;;;;;;;80.90;41.70;;;;;;;2.42;80.70;101418.16;126476;1098;23350;-81
2020/12/19 00:35:13;;;;;;;69.47;34.78;;;;;;;2.46;81.05;101421.50;126399;1101;23324;-82
2020/12/19 00:37:44;;;;;;;68.50;36.40;;;;;;;2.47;80.77;101419.66;126445;1100;23394;-82
2020/12/19 00:40:13;;;;;;;73.80;36.03;;;;;;;2.49;80.98;101418.56;126476;1100;23335;-82
2020/12/19 00:42:41;;;;;;;64.22;31.93;;;;;;;2.53;81.01;101425.45;126520;1098;25050;-81
2020/12/19 00:45:09;;;;;;;77.55;41.13;;;;;;;2.55;81.08;101419.95;126534;1100;23343;-82
2020/12/19 00:47:38;;;;;;;77.08;41.08;;;;;;;2.58;81.06;101417.91;126502;1098;23330;-82
2020/12/19 00:50:08;;;;;;;58.57;29.87;;;;;;;2.61;81.17;101417.66;126480;1099;23345;-82
2020/12/19 00:52:36;;;;;;;60.53;31.10;;;;;;;2.62;80.92;101419.41;126587;1098;23324;-81
2020/12/19 00:55:06;;;;;;;58.17;29.67;;;;;;;2.63;81.07;101415.72;126494;1100;26554;-82
2020/12/19 00:57:34;;;;;;;61.92;31.15;;;;;;;2.62;81.02;101402.35;126518;1100;23729;-82
2020/12/19 01:00:08;;;;;;;63.52;34.03;;;;;;;2.63;81.20;101399.55;126466;1098;23488;-82
2020/12/19 01:02:38;;;;;;;61.43;29.77;;;;;;;2.66;81.03;101393.92;126506;1100;26603;-83
2020/12/19 01:05:14;;;;;;;74.05;37.00;;;;;;;2.71;81.24;101408.89;126511;1100;23394;-81
2020/12/19 01:07:42;;;;;;;72.58;35.43;;;;;;;2.72;81.27;101405.23;126512;1100;23382;-82
2020/12/19 01:10:11;;;;;;;79.65;41.02;;;;;;;2.73;81.25;101404.24;126524;1098;26430;-80
2020/12/19 01:12:40;;;;;;;85.20;42.43;;;;;;;2.77;81.16;101405.73;126435;1101;23533;-80
2020/12/19 01:15:08;;;;;;;90.55;46.05;;;;;;;2.81;81.18;101407.23;126469;1100;24830;-81
2020/12/19 01:17:40;;;;;;;91.30;43.73;;;;;;;2.82;80.88;101411.66;126485;1099;23431;-81
2020/12/19 01:20:08;;;;;;;79.75;37.75;;;;;;;2.83;81.27;101405.28;126477;1100;23478;-82
2020/12/19 01:22:36;;;;;;;85.30;40.92;;;;;;;2.83;81.14;101405.28;126912;1100;23391;-83
2020/12/19 01:25:04;;;;;;;82.80;39.33;;;;;;;2.83;81.20;101406.13;126865;1098;23324;-81
2020/12/19 01:27:32;;;;;;;80.85;38.92;;;;;;;2.82;81.17;101400.88;126481;1100;26852;-82
2020/12/19 01:30:00;;;;;;;85.50;44.97;;;;;;;2.83;81.13;101406.13;126855;1098;23449;-82
2020/12/19 01:32:29;;;;;;;81.42;41.08;;;;;;;2.84;81.28;101401.62;126499;1100;23442;-81
2020/12/19 01:34:57;;;;;;;78.95;39.95;;;;;;;2.85;81.21;101389.85;126531;1100;26839;-82
2020/12/19 01:37:26;;;;;;;72.20;37.45;;;;;;;2.86;80.95;101388.89;126473;1098;23380;-82
2020/12/19 01:39:54;;;;;;;84.15;45.00;;;;;;;2.88;81.24;101381.55;126464;1099;23418;-82
2020/12/19 01:42:23;;;;;;;74.82;37.42;;;;;;;2.90;80.94;101386.80;126879;1098;23368;-82
2020/12/19 01:44:51;;;;;;;87.40;45.08;;;;;;;2.92;81.30;101374.92;126529;1099;25030;-81
2020/12/19 01:47:21;;;;;;;85.90;45.23;;;;;;;2.91;81.25;101375.91;126462;1100;23390;-81
2020/12/19 01:49:50;;;;;;;89.40;44.25;;;;;;;2.92;81.17;101368.68;126520;1100;26823;-81
2020/12/19 01:52:21;;;;;;;69.32;39.10;;;;;;;2.92;81.32;101366.84;126497;1100;23331;-80
2020/12/19 01:54:50;;;;;;;75.92;40.78;;;;;;;2.92;81.27;101366.84;126524;1100;23969;-80
2020/12/19 01:57:21;;;;;;;66.42;35.65;;;;;;;2.93;81.28;101365.87;126921;1099;23470;-82
2020/12/19 01:59:50;;;;;;;68.30;34.63;;;;;;;2.91;81.30;101362.44;126522;1099;23382;-81
2020/12/19 02:02:24;;;;;;;77.30;40.03;;;;;;;2.92;80.82;101361.45;126873;1098;23546;-84
2020/12/19 02:04:53;;;;;;;53.00;30.08;;;;;;;2.92;81.12;101361.45;126938;1100;23328;-80
2020/12/19 02:07:23;;;;;;;72.15;37.65;;;;;;;2.92;81.51;101355.20;126505;1100;23333;-82
2020/12/19 02:09:52;;;;;;;66.95;35.75;;;;;;;2.92;81.27;101364.14;126507;1100;23374;-81
2020/12/19 02:12:20;;;;;;;67.80;34.35;;;;;;;2.93;81.15;101365.03;126490;1100;23484;-80
2020/12/19 02:14:48;;;;;;;77.27;38.73;;;;;;;2.93;81.28;101365.87;126494;1100;23584;-81
2020/12/19 02:17:16;;;;;;;69.72;34.75;;;;;;;2.94;81.24;101355.95;126419;1101;23381;-81
2020/12/19 02:19:45;;;;;;;61.37;32.42;;;;;;;2.91;81.19;101348.96;126482;1100;23313;-81
2020/12/19 02:22:13;;;;;;;64.07;31.70;;;;;;;2.90;80.98;101352.62;126450;1100;23375;-81
2020/12/19 02:24:41;;;;;;;48.10;25.10;;;;;;;2.86;80.77;101349.32;126466;1099;23424;-81
2020/12/19 02:27:09;;;;;;;50.05;27.80;;;;;;;2.81;81.11;101342.55;126458;1100;23328;-81
2020/12/19 02:29:37;;;;;;;43.33;20.00;;;;;;;2.79;81.08;101339.11;126505;1100;23342;-81
2020/12/19 02:32:05;;;;;;;56.73;29.18;;;;;;;2.76;81.20;101334.82;126525;1100;26408;-82
2020/12/19 02:34:34;;;;;;;66.95;31.57;;;;;;;2.76;81.08;101342.91;126501;1100;23409;-82
2020/12/19 02:37:02;;;;;;;72.57;35.13;;;;;;;2.80;81.31;101338.16;126856;1099;23435;-82
2020/12/19 02:39:30;;;;;;;60.65;31.93;;;;;;;2.82;81.37;101328.97;126447;1099;23427;-82
2020/12/19 02:41:58;;;;;;;69.30;37.28;;;;;;;2.86;81.20;101329.60;126515;1099;23368;-82
2020/12/19 02:44:26;;;;;;;69.58;36.28;;;;;;;2.89;81.10;101331.20;126434;1099;23398;-83
2020/12/19 02:46:54;;;;;;;81.97;39.40;;;;;;;2.93;81.42;101329.98;126518;1100;26813;-81
2020/12/19 02:49:23;;;;;;;50.78;27.82;;;;;;;2.90;81.33;101325.66;126488;1098;23783;-82
2020/12/19 02:51:51;;;;;;;54.20;31.20;;;;;;;2.87;80.72;101331.30;126448;1100;23351;-81
2020/12/19 02:54:20;;;;;;;75.15;35.60;;;;;;;2.85;81.09;101334.11;126847;1098;23375;-81
2020/12/19 02:56:48;;;;;;;69.58;36.45;;;;;;;2.86;81.53;101332.30;126420;1100;23445;-81
2020/12/19 02:59:16;;;;;;;71.17;35.90;;;;;;;2.88;81.49;101333.04;126853;1098;26408;-81
2020/12/19 03:01:44;;;;;;;66.67;35.87;;;;;;;2.88;81.33;101335.73;126425;1098;23425;-81
2020/12/19 03:04:14;;;;;;;66.42;33.80;;;;;;;2.88;81.31;101333.04;126535;1100;23366;-82
2020/12/19 03:06:42;;;;;;;49.13;28.70;;;;;;;2.85;81.00;101330.56;126891;1098;23523;-82
2020/12/19 03:09:11;;;;;;;56.60;27.45;;;;;;;2.82;81.29;101328.97;126497;1100;26421;-80
2020/12/19 03:11:39;;;;;;;52.08;28.25;;;;;;;2.79;80.80;101325.64;126479;1100;26632;-80
2020/12/19 03:14:07;;;;;;;53.98;28.07;;;;;;;2.78;81.11;101323.94;126473;1099;23382;-82
2020/12/19 03:16:35;;;;;;;55.78;30.72;;;;;;;2.77;80.84;101319.50;126456;1100;23339;-81
2020/12/19 03:19:03;;;;;;;58.95;33.33;;;;;;;2.77;81.00;101322.20;126380;1101;23789;-79
2020/12/19 03:21:32;;;;;;;57.05;28.65;;;;;;;2.77;81.16;101325.75;126482;1100;23383;-80
2020/12/19 03:24:00;;;;;;;49.88;24.90;;;;;;;2.74;81.25;101317.06;126881;1098;23431;-80
2020/12/19 03:26:28;;;;;;;52.60;27.90;;;;;;;2.72;81.04;101310.92;126494;1100;23385;-81
2020/12/19 03:28:56;;;;;;;52.48;28.70;;;;;;;2.68;80.98;101315.68;126506;1099;24837;-81
2020/12/19 03:31:24;;;;;;;55.92;29.72;;;;;;;2.70;80.80;101321.81;126871;1100;27086;-80
2020/12/19 03:33:52;;;;;;;58.37;32.33;;;;;;;2.69;81.40;101316.53;126565;1099;23355;-80
2020/12/19 03:36:21;;;;;;;56.70;31.77;;;;;;;2.73;81.02;101307.23;126529;1100;23431;-80
2020/12/19 03:38:49;;;;;;;45.85;26.93;;;;;;;2.71;81.11;101314.58;126504;1098;23595;-81
2020/12/19 03:41:17;;;;;;;57.53;31.30;;;;;;;2.68;81.13;101304.05;126432;1098;23391;-81
2020/12/19 03:43:46;;;;;;;47.08;27.90;;;;;;;2.69;81.05;101308.45;126899;1099;23381;-81
2020/12/19 03:46:15;;;;;;;60.63;30.90;;;;;;;2.66;81.08;101313.09;126903;1098;23944;-81
2020/12/19 03:48:44;;;;;;;50.85;28.57;;;;;;;2.63;81.31;101307.95;126555;1100;24801;-81
2020/12/19 03:51:12;;;;;;;61.58;34.55;;;;;;;2.66;81.21;101309.55;126493;1098;23339;-81
2020/12/19 03:53:40;;;;;;;69.75;40.43;;;;;;;2.70;81.23;101307.48;126905;1098;26434;-81
2020/12/19 03:56:08;;;;;;;65.75;38.00;;;;;;;2.64;81.13;101304.27;126894;1100;23343;-82
2020/12/19 03:58:36;;;;;;;71.30;39.08;;;;;;;2.63;80.76;101297.17;126485;1100;23425;-81
2020/12/19 04:01:05;;;;;;;70.37;40.48;;;;;;;2.65;81.19;101295.22;126505;1100;23779;-81
2020/12/19 04:03:33;;;;;;;78.37;41.15;;;;;;;2.68;81.30;101294.13;126507;1100;23335;-81
2020/12/19 04:06:01;;;;;;;72.25;41.63;;;;;;;2.70;81.16;101294.02;126508;1100;23390;-82
2020/12/19 04:08:30;;;;;;;70.28;38.92;;;;;;;2.73;81.25;101296.46;126475;1100;23522;-81
2020/12/19 04:10:58;;;;;;;67.17;38.38;;;;;;;2.72;81.12;101290.22;126449;1100;23431;-81
2020/12/19 04:13:26;;;;;;;56.28;30.30;;;;;;;2.72;80.95;101284.83;126501;1100;23382;-81
2020/12/19 04:15:54;;;;;;;66.00;36.65;;;;;;;2.69;81.22;101284.20;126467;1098;25075;-81
2020/12/19 04:18:23;;;;;;;60.65;34.50;;;;;;;2.69;81.19;101284.20;126899;1098;23479;-80
2020/12/19 04:20:51;;;;;;;61.18;35.33;;;;;;;2.71;81.16;101284.94;126862;1098;25207;-81
2020/12/19 04:23:20;;;;;;;54.45;32.17;;;;;;;2.75;81.32;101283.73;126857;1098;23449;-80
2020/12/19 04:25:49;;;;;;;59.67;31.93;;;;;;;2.74;81.21;101293.66;126468;1099;23409;-80
2020/12/19 04:28:17;;;;;;;50.85;27.73;;;;;;;2.71;81.10;101284.94;126465;1100;23396;-80
2020/12/19 04:30:46;;;;;;;54.42;31.40;;;;;;;2.72;80.85;101289.37;126464;1098;23342;-80
2020/12/19 04:33:14;;;;;;;51.02;28.17;;;;;;;2.73;81.10;101289.27;126808;1098;23469;-79
2020/12/19 04:35:42;;;;;;;61.75;34.65;;;;;;;2.79;81.16;101295.99;126466;1098;23392;-80
2020/12/19 04:38:10;;;;;;;59.80;36.45;;;;;;;2.82;81.24;101299.33;126472;1098;23471;-79
2020/12/19 04:40:38;;;;;;;63.15;36.33;;;;;;;2.84;81.16;101310.84;126457;1100;23447;-79
2020/12/19 04:43:27;;;;;;;67.22;39.95;;;;;;;2.83;80.98;101295.63;126425;1100;23329;-80
2020/12/19 04:45:55;;;;;;;66.97;39.27;;;;;;;2.83;81.02;101311.80;126588;1100;23431;-80
2020/12/19 04:48:24;;;;;;;74.85;42.30;;;;;;;2.81;80.82;101302.98;126530;1100;23469;-80
2020/12/19 04:50:52;;;;;;;53.98;30.62;;;;;;;2.81;80.72;101294.05;126513;1100;23435;-81
2020/12/19 04:53:21;;;;;;;71.20;45.20;;;;;;;2.76;80.71;101290.86;126527;1098;27821;-80
2020/12/19 04:55:49;;;;;;;73.35;43.35;;;;;;;2.74;80.55;101293.66;126534;1100;23305;-81
2020/12/19 04:58:19;;;;;;;64.90;37.53;;;;;;;2.73;80.80;101291.95;126558;1100;23338;-81
2020/12/19 05:00:48;;;;;;;67.97;41.15;;;;;;;2.71;80.76;101287.64;126573;1100;23969;-81
2020/12/19 05:03:16;;;;;;;69.47;41.60;;;;;;;2.68;81.00;101290.58;126498;1098;23585;-80
2020/12/19 05:05:45;;;;;;;61.80;36.75;;;;;;;2.69;80.84;101293.17;126536;1100;24264;-81
2020/12/19 05:08:13;;;;;;;71.67;42.67;;;;;;;2.68;80.87;101294.13;126516;1098;27980;-81
2020/12/19 05:10:45;;;;;;;69.00;38.08;;;;;;;2.69;80.71;101286.89;126572;1098;23423;-81
2020/12/19 05:13:13;;;;;;;63.80;37.33;;;;;;;2.68;81.05;101296.82;126576;1100;26408;-81
2020/12/19 05:15:42;;;;;;;66.40;39.08;;;;;;;2.72;81.15;101290.22;126466;1100;26433;-80
2020/12/19 05:18:10;;;;;;;61.65;36.77;;;;;;;2.71;80.82;101284.94;126515;1100;23431;-82
2020/12/19 05:20:38;;;;;;;62.87;37.87;;;;;;;2.68;80.83;101287.89;126505;1098;23394;-82
2020/12/19 05:23:08;;;;;;;56.95;34.27;;;;;;;2.64;80.78;101281.86;126481;1100;23348;-81
2020/12/19 05:25:38;;;;;;;49.73;29.37;;;;;;;2.55;80.58;101278.03;126589;1100;23458;-83
2020/12/19 05:28:07;;;;;;;46.65;30.85;;;;;;;2.53;80.78;101277.30;126555;1098;23402;-83
2020/12/19 05:30:35;;;;;;;48.33;28.90;;;;;;;2.51;80.75;101275.70;126485;1100;23320;-83
2020/12/19 05:33:04;;;;;;;48.63;30.10;;;;;;;2.52;80.71;101272.02;126477;1100;27850;-80
2020/12/19 05:35:35;;;;;;;55.93;32.10;;;;;;;2.47;80.57;101277.76;126439;1098;23385;-80
2020/12/19 05:38:05;;;;;;;59.23;32.48;;;;;;;2.45;80.81;101277.89;126450;1100;26874;-80
2020/12/19 05:40:34;;;;;;;63.15;38.85;;;;;;;2.48;80.67;101279.49;126541;1098;23325;-80
2020/12/19 05:43:02;;;;;;;63.38;37.70;;;;;;;2.50;81.07;101279.35;126486;1098;23321;-81
2020/12/19 05:45:31;;;;;;;58.10;36.13;;;;;;;2.48;80.90;101284.87;126444;1100;23398;-81
2020/12/19 05:47:59;;;;;;;53.35;36.25;;;;;;;2.50;80.94;101282.05;126518;1100;23385;-80
2020/12/19 05:50:27;;;;;;;55.92;34.78;;;;;;;2.45;80.87;101288.67;126491;1100;24068;-82
2020/12/19 05:53:03;;;;;;;45.65;30.02;;;;;;;2.46;80.73;101273.36;126508;1100;26475;-81
2020/12/19 05:55:35;;;;;;;50.33;30.08;;;;;;;2.41;80.72;101283.61;126444;1100;23730;-81
2020/12/19 05:58:05;;;;;;;50.12;31.48;;;;;;;2.38;80.66;101291.93;126810;1100;23332;-80
2020/12/19 06:00:34;;;;;;;53.60;34.38;;;;;;;2.36;80.75;101294.73;126914;1098;25119;-79
2020/12/19 06:03:05;;;;;;;46.85;29.67;;;;;;;2.39;81.00;101285.55;126500;1098;24830;-79
2020/12/19 06:05:36;;;;;;;57.98;34.67;;;;;;;2.38;80.95;101281.16;126520;1100;23436;-79
2020/12/19 06:08:22;;;;;;;59.77;34.92;;;;;;;2.38;80.87;101273.08;126581;1098;26380;-78
2020/12/19 06:10:53;;;;;;;51.53;31.52;;;;;;;2.34;80.75;101269.75;126640;1101;23436;-79
2020/12/19 06:13:25;;;;;;;53.92;34.67;;;;;;;2.32;80.79;101266.31;126650;1099;26387;-78
2020/12/19 06:16:05;;;;;;;48.98;30.20;;;;;;;2.32;80.98;101262.77;126601;1099;23335;-78
2020/12/19 06:18:50;;;;;;;50.25;33.55;;;;;;;2.30;81.02;101264.72;126741;1098;23325;-80
2020/12/19 06:21:20;;;;;;;53.70;32.80;;;;;;;2.30;80.94;101262.02;126668;1098;23328;-79
2020/12/19 06:23:48;;;;;;;56.80;34.73;;;;;;;2.30;80.92;101270.95;126627;1101;23382;-79
2020/12/19 06:26:16;;;;;;;50.65;33.38;;;;;;;2.30;81.04;101262.88;126640;1099;23379;-78
2020/12/19 06:28:47;;;;;;;56.10;34.90;;;;;;;2.35;81.11;101267.94;126655;1100;23346;-79
2020/12/19 06:31:21;;;;;;;61.65;40.15;;;;;;;2.37;81.23;101269.53;126605;1100;23345;-79
2020/12/19 06:33:52;;;;;;;58.13;36.17;;;;;;;2.41;81.43;101270.14;126700;1098;23395;-80
2020/12/19 06:36:29;;;;;;;58.60;36.30;;;;;;;2.47;81.61;101264.29;126786;1099;23456;-78
2020/12/19 06:39:07;;;;;;;52.53;34.95;;;;;;;2.51;81.33;101273.86;126605;1101;26953;-78
2020/12/19 06:41:49;;;;;;;52.98;34.15;;;;;;;2.49;81.09;101266.88;126999;1098;23429;-79
2020/12/19 06:44:26;;;;;;;58.98;38.78;;;;;;;2.52;81.19;101272.90;127092;1098;23485;-78
2020/12/19 06:46:57;;;;;;;53.83;35.80;;;;;;;2.54;81.15;101270.06;126599;1099;23324;-78
2020/12/19 06:49:29;;;;;;;34.50;21.55;;;;;;;2.54;81.16;101280.84;126634;1098;24662;-78
2020/12/19 06:52:11;;;;;;;48.58;30.40;;;;;;;2.48;81.22;101271.41;126507;1100;23340;-80
2020/12/19 06:54:47;;;;;;;42.03;27.77;;;;;;;2.49;81.05;101278.50;126441;1100;27568;-77
2020/12/19 06:57:30;;;;;;;45.67;28.80;;;;;;;2.51;81.37;101281.94;126485;1098;23349;-76
2020/12/19 07:00:24;;;;;;;41.28;25.48;;;;;;;2.53;81.30;101293.45;126518;1100;23305;-76
2020/12/19 07:03:04;;;;;;;42.57;28.17;;;;;;;2.48;80.90;101289.41;126366;1100;23369;-75
2020/12/19 07:05:34;;;;;;;43.92;29.23;;;;;;;2.48;81.27;101287.57;126350;1101;24381;-75
2020/12/19 07:08:20;;;;;;;48.10;32.83;;;;;;;2.53;81.40;101297.99;126386;1100;23334;-75
2020/12/19 07:10:51;;;;;;;40.58;31.00;;;;;;;2.56;81.40;101301.32;126478;1100;23341;-76
2020/12/19 07:13:20;;;;;;;50.43;35.25;;;;;;;2.58;81.33;101296.68;126538;1100;25102;-75
2020/12/19 07:15:52;;;;;;;53.78;34.63;;;;;;;2.62;81.51;101306.25;126359;1100;23498;-74
2020/12/19 07:18:37;;;;;;;52.53;33.00;;;;;;;2.62;81.14;101297.28;126476;1100;23404;-76
2020/12/19 07:21:10;;;;;;;56.30;37.10;;;;;;;2.61;81.19;101303.66;126536;1100;23401;-76
2020/12/19 07:23:40;;;;;;;56.57;41.03;;;;;;;2.59;81.19;101298.38;126511;1100;23444;-77
2020/12/19 07:26:10;;;;;;;;;;;;;;;2.59;81.39;101311.00;126433;1100;23371;-75
2020/12/19 07:28:39;;;;;;;64.85;43.87;;;;;;;2.58;81.04;101317.34;126437;1100;21499;-75
2020/12/19 07:31:07;;;;;;;66.60;45.50;;;;;;;2.57;81.30;101316.50;126451;1100;26792;-77
2020/12/19 07:33:36;;;;;;;64.00;42.60;;;;;;;2.57;81.16;101311.11;126367;1100;23335;-77
2020/12/19 07:36:05;;;;;;;48.60;33.45;;;;;;;2.56;81.10;101309.41;126413;1100;26792;-77
2020/12/19 07:38:34;;;;;;;47.67;33.90;;;;;;;2.53;80.79;101315.00;126463;1100;23434;-77
2020/12/19 07:41:03;;;;;;;43.85;32.70;;;;;;;2.54;81.09;101307.78;126389;1100;23366;-80
2020/12/19 07:43:31;;;;;;;51.13;35.40;;;;;;;2.51;80.80;101308.88;126892;1100;23372;-76
2020/12/19 07:45:59;;;;;;;56.30;39.15;;;;;;;2.51;81.14;101321.49;126369;1100;26384;-78
2020/12/19 07:48:28;;;;;;;63.20;48.67;;;;;;;2.52;81.47;101316.00;126362;1100;23366;-77
2020/12/19 07:51:06;;;;;;;56.10;38.00;;;;;;;2.53;81.26;101312.31;126512;1100;23334;-77
2020/12/19 07:53:43;;;;;;;38.85;29.10;;;;;;;2.51;81.20;101306.18;126475;1100;23315;-78
2020/12/19 07:56:13;;;;;;;55.20;38.85;;;;;;;2.46;80.57;101300.30;126836;1100;26836;-77
2020/12/19 07:58:46;;;;;;;59.67;41.83;;;;;;;2.47;81.12;101312.77;126490;1100;26568;-76
2020/12/19 08:01:15;;;;;;;65.00;43.33;;;;;;;2.50;81.39;101304.48;126408;1100;23331;-77
2020/12/19 08:03:59;;;;;;;61.80;43.35;;;;;;;2.56;81.41;101309.41;126388;1100;23391;-76
2020/12/19 08:06:45;;;;;;;66.25;46.70;;;;;;;2.59;81.37;101311.85;126377;1100;26408;-76
2020/12/19 08:09:29;;;;;;;67.97;45.23;;;;;;;2.66;81.65;101318.48;126366;1100;23310;-74
2020/12/19 08:12:00;;;;;;;66.77;45.80;;;;;;;2.69;81.51;101314.72;126357;1100;23401;-75
2020/12/19 08:14:29;;;;;;;67.12;49.98;;;;;;;2.73;81.79;101312.63;126384;1100;23310;-75
2020/12/19 08:16:58;;;;;;;65.93;46.73;;;;;;;2.78;81.33;101313.16;126357;1100;26434;-74
2020/12/19 08:19:35;;;;;;;62.30;45.25;;;;;;;2.80;81.36;101311.20;126405;1100;25862;-77
2020/12/19 08:22:05;;;;;;;70.67;50.53;;;;;;;2.88;81.53;101324.07;126431;1100;23391;-75
2020/12/19 08:24:33;;;;;;;77.50;53.55;;;;;;;2.93;81.69;101320.05;126407;1100;23445;-74
2020/12/19 08:27:43;;;;;;;73.55;50.43;;;;;;;2.92;81.40;101315.63;126396;1100;23398;-77
2020/12/19 08:30:24;;;;;;;75.85;52.13;;;;;;;2.90;80.82;101331.05;126382;1101;23536;-76
2020/12/19 08:33:03;;;;;;;73.95;53.13;;;;;;;2.91;80.87;101332.80;126424;1100;24944;-77
2020/12/19 08:35:40;;;;;;;68.80;44.45;;;;;;;2.87;81.05;101325.91;126411;1100;27961;-77
2020/12/19 08:38:28;;;;;;;58.05;38.42;;;;;;;2.86;80.64;101322.37;126450;1100;23327;-76
2020/12/19 08:41:02;;;;;;;58.17;41.23;;;;;;;2.79;80.55;101331.03;126407;1100;23401;-76
2020/12/19 08:43:39;;;;;;;55.95;40.28;;;;;;;2.74;80.36;101326.00;126394;1100;23284;-76
2020/12/19 08:46:13;;;;;;;63.00;42.80;;;;;;;2.73;80.39;101332.37;126401;1100;23333;-77
2020/12/19 08:48:44;;;;;;;57.58;39.88;;;;;;;2.72;80.75;101324.40;126377;1100;23321;-77
2020/12/19 08:51:14;;;;;;;62.03;42.53;;;;;;;2.73;80.80;101328.80;126219;1100;23350;-77
2020/12/19 08:53:43;;;;;;;60.97;44.17;;;;;;;2.73;80.56;101331.48;126395;1100;23411;-76
2020/12/19 08:56:25;;;;;;;70.80;46.40;;;;;;;2.74;81.04;101328.69;126336;1101;28742;-76
2020/12/19 08:58:57;;;;;;;69.47;49.30;;;;;;;2.73;80.78;101328.80;126337;1100;25231;-76
2020/12/19 09:01:33;;;;;;;55.48;39.67;;;;;;;2.73;80.63;101331.48;126297;1100;23346;-75
2020/12/19 09:04:09;;;;;;;66.70;47.30;;;;;;;2.70;80.75;101327.20;126403;1100;23356;-75
2020/12/19 09:06:53;;;;;;;78.17;53.23;;;;;;;2.75;80.82;101334.93;126385;1100;23360;-78
2020/12/19 09:09:30;;;;;;;70.37;47.85;;;;;;;2.77;80.99;101335.67;126478;1100;26829;-76
2020/12/19 09:12:09;;;;;;;61.65;42.67;;;;;;;2.77;80.86;101330.28;126441;1100;23349;-77
2020/12/19 09:14:37;;;;;;;84.15;57.98;;;;;;;2.77;80.53;101335.67;126374;1100;23391;-78
2020/12/19 09:17:05;;;;;;;65.95;47.78;;;;;;;2.81;80.50;101334.47;126327;1100;23327;-76
2020/12/19 09:19:34;;;;;;;70.90;48.52;;;;;;;2.82;80.75;101333.50;126490;1099;24818;-76
2020/12/19 09:22:03;;;;;;;71.77;48.40;;;;;;;2.88;80.91;101329.46;126635;1100;23377;-76
2020/12/19 09:24:31;;;;;;;70.67;47.33;;;;;;;2.95;80.85;101318.10;126424;1101;23486;-74
2020/12/19 09:27:00;;;;;;;66.35;45.55;;;;;;;3.01;81.25;101316.78;126462;1100;26952;-77
2020/12/19 09:29:28;;;;;;;55.73;38.40;;;;;;;3.02;80.87;101318.48;126803;1098;26434;-76
2020/12/19 09:31:56;;;;;;;65.42;44.35;;;;;;;3.01;80.77;101323.02;126411;1099;23430;-77
2020/12/19 09:34:24;;;;;;;64.75;45.50;;;;;;;3.05;80.75;101320.92;126820;1098;25081;-78
2020/12/19 09:36:53;;;;;;;67.95;48.17;;;;;;;3.04;80.68;101317.38;126812;1098;23555;-77
2020/12/19 09:39:21;;;;;;;70.20;46.93;;;;;;;3.11;80.83;101314.21;126438;1100;23337;-79
2020/12/19 09:41:49;;;;;;;73.90;49.40;;;;;;;3.11;80.91;101300.73;126448;1100;25226;-79
2020/12/19 09:44:18;;;;;;;68.05;46.92;;;;;;;3.09;80.14;101300.84;126930;1099;23617;-80
2020/12/19 09:46:46;;;;;;;56.00;39.65;;;;;;;3.04;80.11;101295.81;126362;1100;23324;-76
2020/12/19 09:49:15;;;;;;;67.53;44.90;;;;;;;3.04;80.24;101301.20;126394;1102;23398;-77
2020/12/19 09:51:43;;;;;;;53.13;34.48;;;;;;;2.99;80.08;101291.78;126480;1098;23536;-77
2020/12/19 09:54:11;;;;;;;71.50;47.03;;;;;;;2.95;80.25;101282.21;126469;1099;23479;-76
2020/12/19 09:56:40;;;;;;;75.20;49.87;;;;;;;2.96;80.13;101281.22;126541;1100;26801;-77
2020/12/19 09:59:09;;;;;;;71.00;46.75;;;;;;;2.95;80.16;101284.91;126503;1100;23589;-76
2020/12/19 10:01:39;;;;;;;80.00;50.35;;;;;;;2.94;80.03;101289.41;126496;1100;23469;-75
2020/12/19 10:04:07;;;;;;;85.77;54.83;;;;;;;2.93;80.32;101285.02;126436;1100;23335;-78
2020/12/19 10:06:35;;;;;;;80.75;51.75;;;;;;;2.91;80.42;101286.97;126381;1098;23869;-76
2020/12/19 10:09:03;;;;;;;83.58;56.37;;;;;;;2.94;80.39;101289.41;126992;1098;23399;-75
2020/12/19 10:11:32;;;;;;;105.22;60.05;;;;;;;2.96;80.41;101278.52;126879;1099;23402;-78
2020/12/19 10:14:00;;;;;;;90.53;61.67;;;;;;;2.96;80.45;101271.28;126421;1098;23441;-78
2020/12/19 10:16:28;;;;;;;64.45;43.58;;;;;;;2.96;80.35;101276.67;126766;1098;23479;-77
2020/12/19 10:18:56;;;;;;;78.42;54.30;;;;;;;2.92;80.39;101285.13;126430;1100;26804;-76
2020/12/19 10:21:25;;;;;;;81.85;49.27;;;;;;;2.96;80.55;101276.67;126452;1101;23569;-78
2020/12/19 10:23:53;;;;;;;63.20;41.77;;;;;;;2.99;80.31;101270.21;126479;1100;27822;-77
2020/12/19 10:26:21;;;;;;;71.77;48.17;;;;;;;2.99;80.25;101275.60;126678;1101;24823;-77
2020/12/19 10:28:49;;;;;;;79.97;50.23;;;;;;;2.97;80.10;101273.02;126411;1101;23892;-77
2020/12/19 10:31:17;;;;;;;60.17;43.58;;;;;;;2.96;80.12;101278.52;126490;1099;23366;-76
2020/12/19 10:33:45;;;;;;;72.70;49.55;;;;;;;2.95;79.93;101276.82;126883;1098;23473;-77
2020/12/19 10:36:14;;;;;;;66.80;44.90;;;;;;;2.96;80.39;101270.44;126864;1098;23398;-78
2020/12/19 10:38:42;;;;;;;52.45;39.85;;;;;;;2.95;80.32;101268.73;126476;1099;23477;-78
2020/12/19 10:41:12;;;;;;;49.35;34.80;;;;;;;2.90;80.16;101271.76;126431;1100;23438;-78
2020/12/19 10:43:41;;;;;;;47.78;33.95;;;;;;;2.91;80.09;101270.80;126429;1098;23341;-78
2020/12/19 10:46:10;;;;;;;42.48;31.93;;;;;;;2.91;80.31;101272.64;126612;1100;23336;-76
2020/12/19 10:48:38;;;;;;;51.08;36.20;;;;;;;2.95;80.20;101274.13;126781;1098;23440;-76
2020/12/19 10:51:06;;;;;;;45.30;33.67;;;;;;;2.96;80.24;101260.50;126412;1098;23408;-76
2020/12/19 10:53:34;;;;;;;53.02;36.45;;;;;;;2.96;80.30;101267.73;126471;1100;23407;-77
2020/12/19 10:56:03;;;;;;;45.83;32.60;;;;;;;2.97;80.55;101262.23;126943;1098;23404;-77
2020/12/19 10:58:31;;;;;;;57.05;39.00;;;;;;;2.95;80.34;101258.80;126408;1100;26979;-77
2020/12/19 11:00:59;;;;;;;56.80;36.00;;;;;;;2.96;80.29;101260.50;126855;1098;23337;-77
2020/12/19 11:03:27;;;;;;;63.63;45.45;;;;;;;2.96;80.41;101260.50;126423;1099;26862;-77
2020/12/19 11:05:55;;;;;;;61.35;43.60;;;;;;;3.00;80.18;101259.28;126425;1100;23382;-77
2020/12/19 11:08:24;;;;;;;62.62;43.05;;;;;;;3.05;80.39;101259.80;126406;1100;23414;-77
2020/12/19 11:11:13;;;;;;;54.65;36.42;;;;;;;3.09;80.46;101260.39;126822;1098;23531;-76
2020/12/19 11:13:45;;;;;;;52.75;34.90;;;;;;;3.12;80.68;101257.48;126430;1099;24748;-77
2020/12/19 11:16:24;;;;;;;55.38;38.63;;;;;;;3.12;80.37;101254.78;126434;1099;23387;-77
2020/12/19 11:18:57;;;;;;;53.70;38.73;;;;;;;3.13;80.63;101247.55;126409;1100;23335;-76
2020/12/19 11:21:25;;;;;;;59.70;40.67;;;;;;;3.13;80.50;101259.18;126422;1098;23395;-77
2020/12/19 11:23:58;;;;;;;63.23;43.70;;;;;;;3.13;80.38;101251.09;126395;1099;23331;-76